createdAt,value
2022-10-17T00:00:37.916Z,61.00
2022-10-17T00:03:04.456Z,60.30
2022-10-17T00:05:31.192Z,60.94
2022-10-17T00:07:57.739Z,60.86
2022-10-17T00:10:25.290Z,60.60
2022-10-17T00:12:52.644Z,60.73
2022-10-17T00:15:20.685Z,60.43
2022-10-17T00:17:47.365Z,60.50
2022-10-17T00:20:14.084Z,60.82
2022-10-17T00:22:40.759Z,60.52
2022-10-17T00:25:07.485Z,60.15
2022-10-17T00:27:40.858Z,60.43
2022-10-17T00:30:08.629Z,60.03
2022-10-17T00:32:35.193Z,59.93
2022-10-17T00:35:01.813Z,60.45
2022-10-17T00:37:30.194Z,61.36
2022-10-17T00:39:56.741Z,61.41
2022-10-17T00:42:25.298Z,61.10
2022-10-17T00:45:07.537Z,60.82
2022-10-17T00:47:35.975Z,60.08
2022-10-17T00:52:34.820Z,60.15
2022-10-17T00:55:09.675Z,59.96
2022-10-17T00:57:36.330Z,59.98
2022-10-17T01:00:05.140Z,60.04
2022-10-17T01:02:31.762Z,60.31
2022-10-17T01:04:59.665Z,60.90
2022-10-17T01:07:30.823Z,60.68
2022-10-17T01:09:59.964Z,60.65
2022-10-17T01:12:36.789Z,60.33
2022-10-17T01:15:18.032Z,59.92
2022-10-17T01:17:59.774Z,59.72
2022-10-17T01:20:41.688Z,58.80
2022-10-17T01:23:11.084Z,59.35
2022-10-17T01:25:46.932Z,58.89
2022-10-17T01:28:32.901Z,59.77
2022-10-17T01:31:02.557Z,59.29
2022-10-17T01:33:29.101Z,59.46
2022-10-17T01:36:04.849Z,59.18
2022-10-17T01:38:38.362Z,61.08
2022-10-17T01:41:14.732Z,60.81
2022-10-17T01:43:47.292Z,60.82
2022-10-17T01:46:19.562Z,61.30
2022-10-17T01:48:46.806Z,60.12
2022-10-17T01:51:17.170Z,60.15
2022-10-17T01:53:47.596Z,60.82
2022-10-17T01:56:14.701Z,60.66
2022-10-17T01:58:47.600Z,61.95
2022-10-17T02:01:14.332Z,60.77
2022-10-17T02:03:43.177Z,61.11
2022-10-17T02:06:09.896Z,61.05
2022-10-17T02:08:42.421Z,60.50
2022-10-17T02:11:14.908Z,60.60
2022-10-17T02:13:51.591Z,60.30
2022-10-17T02:16:18.170Z,60.64
2022-10-17T02:18:57.446Z,60.39
2022-10-17T02:21:43.424Z,60.06
2022-10-17T02:27:35.785Z,59.95
2022-10-17T02:33:08.147Z,60.80
2022-10-17T02:38:29.653Z,60.32
2022-10-17T02:41:33.461Z,61.20
2022-10-17T02:44:08.541Z,61.50
2022-10-17T02:49:33.262Z,60.72
2022-10-17T02:52:20.794Z,61.19
2022-10-17T02:55:00.120Z,60.90
2022-10-17T02:58:18.542Z,60.48
2022-10-17T03:00:48.092Z,60.65
2022-10-17T03:03:29.667Z,59.92
2022-10-17T03:06:09.512Z,59.74
2022-10-17T03:08:53.889Z,60.43
2022-10-17T03:11:20.760Z,60.97
2022-10-17T03:13:47.348Z,60.76
2022-10-17T03:16:13.869Z,60.35
2022-10-17T03:18:40.482Z,60.23
2022-10-17T03:21:07.227Z,60.51
2022-10-17T03:23:33.857Z,60.50
2022-10-17T03:26:03.455Z,61.12
2022-10-17T03:28:30.058Z,60.24
2022-10-17T03:30:56.667Z,60.11
2022-10-17T03:33:23.200Z,60.51
2022-10-17T03:41:03.990Z,61.04
2022-10-17T03:43:39.410Z,61.10
2022-10-17T03:46:21.555Z,62.42
2022-10-17T03:48:49.208Z,62.52
2022-10-17T03:51:31.227Z,62.73
2022-10-17T03:54:02.203Z,63.02
2022-10-17T03:56:31.293Z,62.19
2022-10-17T03:58:59.590Z,61.73
2022-10-17T04:01:26.304Z,61.44
2022-10-17T04:03:54.028Z,63.44
2022-10-17T04:06:21.259Z,64.74
2022-10-17T04:08:48.005Z,63.85
2022-10-17T04:11:16.113Z,62.89
2022-10-17T04:13:43.225Z,63.33
2022-10-17T04:16:13.915Z,62.36
2022-10-17T04:18:40.451Z,64.01
2022-10-17T04:21:07.663Z,63.78
2022-10-17T04:23:34.650Z,63.70
2022-10-17T04:26:01.853Z,63.79
2022-10-17T04:28:28.520Z,63.84
2022-10-17T04:30:59.135Z,64.45
2022-10-17T04:33:26.023Z,64.32
2022-10-17T04:36:05.843Z,63.72
2022-10-17T04:38:32.677Z,63.10
2022-10-17T04:41:03.361Z,62.47
2022-10-17T04:43:30.414Z,62.26
2022-10-17T04:46:01.425Z,62.55
2022-10-17T04:48:29.034Z,62.59
2022-10-17T04:51:00.042Z,62.29
2022-10-17T04:53:27.319Z,61.92
2022-10-17T04:55:54.122Z,61.65
2022-10-17T04:58:21.099Z,62.13
2022-10-17T05:00:47.788Z,61.93
2022-10-17T05:03:14.602Z,62.34
2022-10-17T05:05:41.946Z,62.70
2022-10-17T05:08:09.345Z,62.53
2022-10-17T05:10:40.477Z,62.40
2022-10-17T05:13:07.516Z,63.09
2022-10-17T05:15:34.245Z,63.52
2022-10-17T05:18:01.185Z,63.46
2022-10-17T05:20:27.911Z,63.06
2022-10-17T05:25:22.079Z,63.16
2022-10-17T05:27:48.755Z,62.64
2022-10-17T05:30:15.358Z,63.53
2022-10-17T05:32:50.890Z,63.87
2022-10-17T05:35:17.604Z,63.74
2022-10-17T05:37:44.187Z,64.09
2022-10-17T05:40:19.209Z,64.76
2022-10-17T05:42:47.534Z,65.40
2022-10-17T05:45:54.294Z,63.17
2022-10-17T05:48:25.553Z,61.76
2022-10-17T05:51:19.169Z,59.26
2022-10-17T05:53:49.283Z,57.93
2022-10-17T05:56:17.506Z,57.00
2022-10-17T05:59:00.712Z,55.52
2022-10-17T06:01:30.370Z,54.16
2022-10-17T06:04:03.369Z,52.70
2022-10-17T06:06:48.832Z,52.05
2022-10-17T06:09:42.437Z,50.19
2022-10-17T06:12:10.207Z,49.61
2022-10-17T06:14:37.109Z,49.64
2022-10-17T06:17:06.743Z,48.31
2022-10-17T06:19:38.531Z,47.26
2022-10-17T06:22:07.302Z,47.30
2022-10-17T06:24:34.129Z,46.46
2022-10-17T06:27:05.851Z,45.12
2022-10-17T06:29:36.199Z,45.49
2022-10-17T06:32:06.914Z,44.78
2022-10-17T06:34:35.906Z,45.44
2022-10-17T06:37:07.316Z,44.63
2022-10-17T06:39:47.140Z,43.45
2022-10-17T06:42:16.254Z,43.09
2022-10-17T06:44:43.387Z,43.10
2022-10-17T06:47:16.544Z,42.16
2022-10-17T06:49:46.108Z,41.66
2022-10-17T06:52:16.470Z,42.25
2022-10-17T06:55:06.410Z,43.01
2022-10-17T06:57:36.357Z,43.60
2022-10-17T07:00:06.832Z,43.71
2022-10-17T07:02:48.758Z,45.38
2022-10-17T07:05:29.817Z,43.38
2022-10-17T07:14:32.393Z,43.35
2022-10-17T07:23:30.303Z,44.55
2022-10-17T07:26:03.861Z,43.96
2022-10-17T07:28:36.798Z,44.59
2022-10-17T07:31:25.830Z,45.50
2022-10-17T07:34:15.026Z,45.12
2022-10-17T07:37:04.137Z,45.37
2022-10-17T07:39:30.945Z,45.51
2022-10-17T07:42:48.232Z,46.18
2022-10-17T07:54:35.687Z,45.92
2022-10-17T07:57:15.438Z,46.42
2022-10-17T08:00:11.757Z,47.68
2022-10-17T08:02:40.484Z,50.43
2022-10-17T08:09:24.544Z,48.50
2022-10-17T08:11:45.354Z,48.20
2022-10-17T08:14:31.361Z,48.37
2022-10-17T08:17:06.499Z,48.07
2022-10-17T08:22:45.661Z,49.35
2022-10-17T08:25:42.144Z,47.07
2022-10-17T08:28:47.031Z,46.80
2022-10-17T08:34:49.118Z,45.94
2022-10-17T08:37:43.592Z,48.36
2022-10-17T08:51:06.318Z,45.31
2022-10-17T08:53:55.783Z,43.34
2022-10-17T08:56:49.463Z,41.85
2022-10-17T09:00:29.236Z,44.77
2022-10-17T09:23:43.681Z,40.81
2022-10-17T09:26:33.826Z,42.33
2022-10-17T09:29:22.692Z,42.20
2022-10-17T09:32:24.178Z,40.91
2022-10-17T09:37:43.461Z,40.20
2022-10-17T09:40:43.735Z,40.89
2022-10-17T09:43:28.394Z,39.94
2022-10-17T09:51:33.515Z,39.08
2022-10-17T09:59:59.091Z,37.88
2022-10-17T10:03:36.537Z,34.45
2022-10-17T10:06:23.572Z,35.57
2022-10-17T10:09:00.334Z,35.76
2022-10-17T10:11:47.934Z,34.61
2022-10-17T10:14:42.719Z,35.21
2022-10-17T10:17:29.787Z,36.35
2022-10-17T10:20:21.840Z,36.04
2022-10-17T10:23:07.227Z,34.99
2022-10-17T10:25:35.349Z,33.02
2022-10-17T10:28:02.792Z,32.20
2022-10-17T10:30:32.074Z,33.40
2022-10-17T10:33:01.958Z,31.94
2022-10-17T10:35:33.581Z,31.84
2022-10-17T10:38:01.598Z,30.92
2022-10-17T10:40:35.601Z,30.20
2022-10-17T10:43:05.402Z,30.05
2022-10-17T10:45:54.120Z,30.38
2022-10-17T10:48:30.667Z,31.05
2022-10-17T10:51:14.357Z,32.92
2022-10-17T10:53:56.010Z,32.04
2022-10-17T10:56:30.445Z,35.06
2022-10-17T10:59:11.720Z,35.81
2022-10-17T11:01:48.394Z,37.15
2022-10-17T11:04:15.145Z,35.61
2022-10-17T11:06:44.661Z,36.44
2022-10-17T11:09:30.039Z,37.36
2022-10-17T11:12:08.891Z,36.11
2022-10-17T11:14:42.691Z,38.03
2022-10-17T11:17:30.426Z,38.80
2022-10-17T11:20:12.877Z,38.85
2022-10-17T11:22:49.780Z,38.42
2022-10-17T11:25:36.722Z,39.18
2022-10-17T11:28:18.554Z,39.70
2022-10-17T11:30:57.616Z,39.09
2022-10-17T11:33:28.534Z,37.82
2022-10-17T11:35:59.830Z,35.16
2022-10-17T11:38:36.528Z,37.03
2022-10-17T11:41:05.271Z,36.63
2022-10-17T11:43:37.415Z,37.60
2022-10-17T11:46:24.489Z,37.71
2022-10-17T11:48:57.285Z,38.83
2022-10-17T11:54:16.065Z,38.08
2022-10-17T11:56:43.089Z,37.65
2022-10-17T11:59:30.241Z,38.46
2022-10-17T12:02:02.674Z,39.39
2022-10-17T12:04:30.412Z,38.51
2022-10-17T12:07:05.093Z,40.21
2022-10-17T12:09:45.633Z,38.42
2022-10-17T12:12:23.621Z,39.08
2022-10-17T12:14:51.368Z,38.79
2022-10-17T12:17:44.673Z,40.28
2022-10-17T12:20:21.694Z,39.87
2022-10-17T12:23:14.596Z,39.34
2022-10-17T12:25:52.896Z,39.26
2022-10-17T12:28:29.567Z,37.70
2022-10-17T12:31:03.559Z,36.56
2022-10-17T12:33:38.351Z,36.25
2022-10-17T12:36:17.746Z,36.83
2022-10-17T12:38:50.239Z,36.07
2022-10-17T12:41:37.604Z,35.05
2022-10-17T12:44:17.851Z,35.64
2022-10-17T12:46:49.962Z,33.49
2022-10-17T12:49:24.417Z,35.50
2022-10-17T12:52:08.388Z,36.79
2022-10-17T12:55:14.787Z,35.07
2022-10-17T12:58:50.681Z,33.04
2022-10-17T13:01:22.535Z,32.29
2022-10-17T13:04:00.625Z,32.35
2022-10-17T13:06:40.129Z,32.19
2022-10-17T13:09:19.090Z,33.25
2022-10-17T13:11:46.096Z,32.35
2022-10-17T13:14:14.718Z,33.06
2022-10-17T13:16:51.481Z,32.71
2022-10-17T13:19:19.520Z,32.63
2022-10-17T13:22:06.392Z,35.06
2022-10-17T13:24:36.414Z,32.41
2022-10-17T13:27:03.896Z,33.17
2022-10-17T13:30:10.957Z,33.61
2022-10-17T13:36:00.794Z,34.16
2022-10-17T13:38:56.564Z,33.29
2022-10-17T13:41:53.303Z,34.05
2022-10-17T13:44:24.325Z,33.53
2022-10-17T13:46:59.641Z,35.71
2022-10-17T13:49:56.746Z,34.88
2022-10-17T13:52:26.742Z,35.87
2022-10-17T13:55:17.607Z,35.54
2022-10-17T13:57:56.596Z,34.48
2022-10-17T14:00:36.597Z,35.03
2022-10-17T14:03:04.644Z,34.18
2022-10-17T14:06:15.455Z,34.77
2022-10-17T14:08:54.473Z,34.05
2022-10-17T14:11:45.654Z,35.34
2022-10-17T14:14:20.767Z,34.86
2022-10-17T14:16:47.599Z,35.27
2022-10-17T14:19:25.277Z,35.04
2022-10-17T14:21:57.170Z,35.10
2022-10-17T14:24:23.958Z,36.06
2022-10-17T14:26:52.001Z,36.53
2022-10-17T14:29:18.811Z,33.51
2022-10-17T14:31:45.653Z,34.18
2022-10-17T14:34:21.976Z,33.56
2022-10-17T14:36:51.936Z,33.88
2022-10-17T14:39:22.613Z,33.43
2022-10-17T14:41:49.945Z,32.58
2022-10-17T14:44:20.997Z,32.62
2022-10-17T14:46:51.024Z,33.05
2022-10-17T14:49:24.545Z,32.96
2022-10-17T14:52:14.925Z,33.89
2022-10-17T14:54:46.685Z,33.16
2022-10-17T14:57:16.402Z,33.85
2022-10-17T14:59:53.880Z,34.16
2022-10-17T15:02:22.190Z,34.17
2022-10-17T15:04:48.933Z,34.26
2022-10-17T15:07:16.291Z,34.72
2022-10-17T15:09:43.891Z,34.73
2022-10-17T15:12:15.277Z,34.36
2022-10-17T15:14:43.584Z,34.31
2022-10-17T15:17:14.688Z,34.44
2022-10-17T15:19:41.682Z,34.68
2022-10-17T15:22:08.444Z,35.19
2022-10-17T15:24:35.054Z,35.96
2022-10-17T15:27:02.317Z,36.48
2022-10-17T15:29:30.192Z,37.36
2022-10-17T15:31:56.943Z,37.86
2022-10-17T15:34:23.646Z,37.87
2022-10-17T15:36:51.401Z,37.94
2022-10-17T15:39:18.190Z,38.63
2022-10-17T15:41:45.115Z,39.51
2022-10-17T15:44:11.816Z,40.40
2022-10-17T15:46:40.016Z,41.63
2022-10-17T15:49:08.124Z,41.42
2022-10-17T15:51:34.850Z,42.01
2022-10-17T15:54:01.985Z,41.87
2022-10-17T15:56:36.452Z,42.07
2022-10-17T15:59:04.941Z,42.70
2022-10-17T16:01:33.247Z,43.27
2022-10-17T16:04:00.498Z,43.75
2022-10-17T16:06:27.766Z,43.77
2022-10-17T16:08:55.222Z,44.04
2022-10-17T16:11:25.275Z,44.31
2022-10-17T16:13:53.676Z,44.30
2022-10-17T16:16:22.911Z,44.51
2022-10-17T16:18:52.973Z,45.11
2022-10-17T16:21:20.846Z,45.08
2022-10-17T16:23:48.334Z,45.47
2022-10-17T16:26:16.272Z,46.50
2022-10-17T16:28:45.987Z,48.15
2022-10-17T16:31:19.235Z,47.51
2022-10-17T16:33:46.141Z,49.88
2022-10-17T16:36:12.903Z,51.89
2022-10-17T16:38:39.555Z,50.67
2022-10-17T16:41:13.920Z,50.12
2022-10-17T16:43:40.641Z,52.55
2022-10-17T16:46:07.325Z,53.77
2022-10-17T16:48:34.066Z,52.60
2022-10-17T16:51:02.648Z,52.24
2022-10-17T16:53:29.356Z,50.92
2022-10-17T16:55:59.735Z,50.67
2022-10-17T16:58:30.958Z,49.90
2022-10-17T17:01:02.072Z,50.06
2022-10-17T17:03:28.803Z,49.43
2022-10-17T17:05:55.478Z,50.02
2022-10-17T17:08:22.284Z,52.09
2022-10-17T17:10:52.736Z,54.26
2022-10-17T17:13:19.773Z,54.15
2022-10-17T17:15:46.636Z,53.84
2022-10-17T17:18:14.532Z,52.75
2022-10-17T17:20:41.897Z,54.85
2022-10-17T17:23:13.668Z,53.80
2022-10-17T17:25:42.447Z,55.03
2022-10-17T17:28:09.515Z,55.28
2022-10-17T17:30:36.202Z,54.55
2022-10-17T17:33:03.119Z,54.17
2022-10-17T17:35:30.748Z,55.71
2022-10-17T17:37:57.759Z,56.30
2022-10-17T17:40:25.090Z,55.93
2022-10-17T17:42:52.052Z,54.17
2022-10-17T17:45:18.898Z,54.59
2022-10-17T17:47:45.671Z,54.65
2022-10-17T17:50:12.381Z,55.67
2022-10-17T17:52:42.166Z,56.68
2022-10-17T17:55:09.230Z,55.77
2022-10-17T17:57:36.000Z,54.60
2022-10-17T18:00:02.770Z,52.91
2022-10-17T18:02:29.683Z,54.38
2022-10-17T18:04:56.618Z,55.22
2022-10-17T18:07:24.132Z,55.99
2022-10-17T18:09:51.851Z,55.02
2022-10-17T18:12:19.684Z,54.71
2022-10-17T18:14:46.412Z,54.33
2022-10-17T18:17:14.196Z,54.63
2022-10-17T18:19:41.250Z,55.24
2022-10-17T18:22:07.990Z,53.60
2022-10-17T18:24:34.874Z,52.74
2022-10-17T18:27:01.785Z,52.31
2022-10-17T18:29:29.730Z,52.30
2022-10-17T18:31:56.451Z,51.52
2022-10-17T18:34:23.186Z,51.44
2022-10-17T18:36:50.097Z,51.37
2022-10-17T18:39:16.876Z,51.21
2022-10-17T18:41:43.615Z,51.01
2022-10-17T18:44:12.562Z,50.55
2022-10-17T18:46:43.231Z,50.68
2022-10-17T18:49:11.048Z,50.93
2022-10-17T18:51:37.678Z,50.69
2022-10-17T18:54:04.582Z,50.53
2022-10-17T18:56:31.911Z,50.68
2022-10-17T18:58:58.592Z,50.35
2022-10-17T19:01:26.749Z,50.42
2022-10-17T19:03:54.752Z,51.17
2022-10-17T19:06:23.036Z,50.99
2022-10-17T19:08:49.899Z,50.92
2022-10-17T19:11:24.451Z,50.76
2022-10-17T19:13:51.783Z,50.41
2022-10-17T19:16:20.515Z,50.72
2022-10-17T19:18:51.022Z,51.48
2022-10-17T19:21:21.747Z,50.75
2022-10-17T19:23:59.119Z,50.89
2022-10-17T19:26:26.512Z,51.39
2022-10-17T19:28:54.021Z,51.62
2022-10-17T19:31:26.419Z,51.94
2022-10-17T19:33:53.725Z,51.83
2022-10-17T19:36:21.649Z,51.79
2022-10-17T19:38:48.527Z,51.13
2022-10-17T19:41:16.345Z,52.04
2022-10-17T19:43:45.250Z,52.26
2022-10-17T19:46:16.396Z,51.89
2022-10-17T19:48:43.430Z,52.11
2022-10-17T19:51:13.991Z,53.12
2022-10-17T19:53:41.309Z,52.43
2022-10-17T19:56:09.376Z,52.80
2022-10-17T19:58:43.869Z,53.55
2022-10-17T20:01:11.814Z,53.09
2022-10-17T20:03:38.555Z,53.00
2022-10-17T20:06:05.547Z,52.95
2022-10-17T20:08:32.304Z,52.67
2022-10-17T20:11:02.262Z,52.13
2022-10-17T20:13:28.990Z,52.29
2022-10-17T20:15:56.297Z,52.22
2022-10-17T20:18:23.234Z,52.31
2022-10-17T20:20:52.898Z,52.92
2022-10-17T20:23:20.265Z,52.67
2022-10-17T20:25:46.882Z,52.60
2022-10-17T20:28:13.481Z,52.65
2022-10-17T20:30:44.678Z,53.36
2022-10-17T20:33:14.026Z,52.54
2022-10-17T20:35:41.314Z,53.10
2022-10-17T20:38:07.913Z,52.96
2022-10-17T20:40:35.531Z,53.44
2022-10-17T20:43:03.541Z,52.52
2022-10-17T20:45:45.160Z,52.56
2022-10-17T20:48:17.171Z,52.58
2022-10-17T20:50:44.032Z,52.99
2022-10-17T20:53:35.476Z,53.89
2022-10-17T20:56:02.042Z,54.35
2022-10-17T20:58:29.118Z,54.20
2022-10-17T21:00:55.697Z,53.39
2022-10-17T21:03:22.511Z,54.37
2022-10-17T21:05:49.167Z,53.17
2022-10-17T21:08:15.777Z,53.56
2022-10-17T21:10:42.496Z,54.26
2022-10-17T21:13:09.313Z,53.91
2022-10-17T21:15:35.991Z,53.82
2022-10-17T21:18:09.853Z,54.17
2022-10-17T21:23:30.723Z,53.54
2022-10-17T21:26:18.106Z,55.68
2022-10-17T21:28:54.318Z,54.97
2022-10-17T21:31:30.928Z,54.20
2022-10-17T21:37:18.779Z,53.86
2022-10-17T21:42:57.226Z,54.56
2022-10-17T21:45:50.072Z,54.66
2022-10-17T21:48:16.720Z,53.50
2022-10-17T21:50:43.493Z,53.40
2022-10-17T21:53:10.134Z,57.53
2022-10-17T21:55:37.766Z,58.27
2022-10-17T21:58:04.879Z,55.75
2022-10-17T22:00:31.678Z,54.93
2022-10-17T22:02:58.285Z,55.10
2022-10-17T22:05:24.882Z,54.77
2022-10-17T22:07:51.539Z,54.54
2022-10-17T22:10:18.351Z,54.50
2022-10-17T22:12:45.019Z,53.99
2022-10-17T22:15:11.686Z,54.28
2022-10-17T22:17:38.334Z,55.22
2022-10-17T22:20:05.120Z,55.39
2022-10-17T22:22:31.678Z,54.34
2022-10-17T22:24:58.338Z,56.06
2022-10-17T22:27:24.892Z,55.94
2022-10-17T22:29:51.458Z,55.60
2022-10-17T22:32:21.526Z,55.04
2022-10-17T22:34:49.208Z,54.29
2022-10-17T22:37:15.800Z,54.43
2022-10-17T22:39:42.464Z,55.42
2022-10-17T22:42:09.138Z,55.23
2022-10-17T22:44:35.828Z,55.03
2022-10-17T22:47:02.473Z,56.17
2022-10-17T22:49:29.062Z,54.97
2022-10-17T22:51:55.576Z,55.65
2022-10-17T22:54:22.213Z,56.82
2022-10-17T22:56:53.647Z,56.76
2022-10-17T22:59:20.446Z,56.33
2022-10-17T23:01:47.059Z,56.68
2022-10-17T23:04:13.730Z,57.51
2022-10-17T23:06:40.322Z,55.92
2022-10-17T23:09:06.932Z,56.75
2022-10-17T23:11:33.664Z,56.26
2022-10-17T23:14:00.289Z,56.80
2022-10-17T23:16:26.884Z,56.64
2022-10-17T23:18:53.473Z,56.92
2022-10-17T23:21:20.096Z,57.45
2022-10-17T23:23:46.898Z,56.61
2022-10-17T23:26:14.244Z,57.03
2022-10-17T23:28:41.792Z,57.30
2022-10-17T23:31:15.937Z,56.09
2022-10-17T23:33:42.945Z,55.70
2022-10-17T23:36:10.788Z,56.50
2022-10-17T23:38:37.911Z,57.42
2022-10-17T23:41:04.762Z,58.17
2022-10-17T23:43:31.898Z,60.73
2022-10-17T23:45:58.540Z,60.94
2022-10-17T23:48:25.278Z,58.89
2022-10-17T23:50:51.998Z,58.36
2022-10-17T23:53:18.639Z,57.72
2022-10-17T23:55:45.175Z,57.86
2022-10-17T23:58:11.751Z,57.48
